createdAt,value
2018-03-08T00:01:34.366Z,1.90
2018-03-08T00:04:01.348Z,1.90
2018-03-08T00:06:28.234Z,1.80
2018-03-08T00:08:55.222Z,1.90
2018-03-08T00:11:22.886Z,1.67
2018-03-08T00:13:50.653Z,1.50
2018-03-08T00:16:17.642Z,1.50
2018-03-08T00:18:43.893Z,2.90
2018-03-08T00:21:11.094Z,1.60
2018-03-08T00:23:38.864Z,2.00
2018-03-08T00:26:06.546Z,2.67
2018-03-08T00:28:33.538Z,1.80
2018-03-08T00:30:59.789Z,2.40
2018-03-08T00:33:26.366Z,2.60
2018-03-08T00:35:54.645Z,22.97
2018-03-08T00:38:21.643Z,11.20
2018-03-08T00:40:47.914Z,4.83
2018-03-08T00:43:15.193Z,8.97
2018-03-08T00:45:42.174Z,11.57
2018-03-08T00:48:08.413Z,7.10
2018-03-08T00:50:35.010Z,4.53
2018-03-08T00:53:01.358Z,3.63
2018-03-08T00:55:29.538Z,2.50
2018-03-08T00:57:57.705Z,2.50
2018-03-08T01:00:25.989Z,2.10
2018-03-08T01:02:52.962Z,2.00
2018-03-08T01:05:20.102Z,1.90
2018-03-08T01:07:47.973Z,2.10
2018-03-08T01:10:14.963Z,2.17
2018-03-08T01:12:41.218Z,2.33
2018-03-08T01:15:08.109Z,2.37
2018-03-08T01:17:35.102Z,2.40
2018-03-08T01:20:03.633Z,2.60
2018-03-08T01:22:30.661Z,4.20
2018-03-08T01:24:56.901Z,3.53
2018-03-08T01:27:24.638Z,11.83
2018-03-08T01:29:51.141Z,10.60
2018-03-08T01:32:18.129Z,6.70
2018-03-08T01:34:44.493Z,4.07
2018-03-08T01:37:11.681Z,3.40
2018-03-08T01:39:38.666Z,5.60
2018-03-08T01:42:05.742Z,3.07
2018-03-08T01:44:33.501Z,3.07
2018-03-08T01:47:00.130Z,2.37
2018-03-08T01:49:26.377Z,3.10
2018-03-08T01:52:05.250Z,2.50
2018-03-08T01:54:32.233Z,2.97
2018-03-08T01:56:58.490Z,3.00
2018-03-08T01:59:26.306Z,2.10
2018-03-08T02:01:54.186Z,2.70
2018-03-08T02:04:21.165Z,1.80
2018-03-08T02:06:48.178Z,2.03
2018-03-08T02:09:15.154Z,2.50
2018-03-08T02:11:41.395Z,2.33
2018-03-08T02:14:08.301Z,1.80
2018-03-08T02:16:34.554Z,1.67
2018-03-08T02:19:01.545Z,1.90
2018-03-08T02:21:28.561Z,1.50
2018-03-08T02:23:56.321Z,2.90
2018-03-08T02:26:23.318Z,2.20
2018-03-08T02:28:49.582Z,1.90
2018-03-08T02:31:16.562Z,1.57
2018-03-08T02:33:43.560Z,2.17
2018-03-08T02:36:10.566Z,2.50
2018-03-08T02:38:37.560Z,2.10
2018-03-08T02:41:03.811Z,1.80
2018-03-08T02:43:31.519Z,3.23
2018-03-08T02:45:58.503Z,2.70
2018-03-08T02:48:24.783Z,2.80
2018-03-08T02:50:51.358Z,1.80
2018-03-08T02:53:18.338Z,3.73
2018-03-08T02:55:44.706Z,1.63
2018-03-08T02:58:12.201Z,3.37
2018-03-08T03:00:39.978Z,2.30
2018-03-08T03:03:07.736Z,2.40
2018-03-08T03:05:36.222Z,2.27
2018-03-08T03:08:03.252Z,2.70
2018-03-08T03:10:30.237Z,2.33
2018-03-08T03:12:57.261Z,1.83
2018-03-08T03:15:23.552Z,2.00
2018-03-08T03:17:50.765Z,2.23
2018-03-08T03:20:18.638Z,1.90
2018-03-08T03:22:46.413Z,2.30
2018-03-08T03:25:14.378Z,2.20
2018-03-08T03:27:40.709Z,2.77
2018-03-08T03:30:06.955Z,2.20
2018-03-08T03:32:34.214Z,1.87
2018-03-08T03:35:01.205Z,1.93
2018-03-08T03:37:28.253Z,2.27
2018-03-08T03:39:54.489Z,2.60
2018-03-08T03:42:21.706Z,4.20
2018-03-08T03:44:48.681Z,2.43
2018-03-08T03:47:14.959Z,2.23
2018-03-08T03:49:41.538Z,3.03
2018-03-08T03:52:08.522Z,1.93
2018-03-08T03:54:34.869Z,1.67
2018-03-08T03:57:03.237Z,1.37
2018-03-08T03:59:30.458Z,2.50
2018-03-08T04:01:58.437Z,2.13
2018-03-08T04:04:25.423Z,2.80
2018-03-08T04:06:52.543Z,2.53
2018-03-08T04:09:19.513Z,2.70
2018-03-08T04:11:46.557Z,2.83
2018-03-08T04:14:12.813Z,2.80
2018-03-08T04:16:39.935Z,4.40
2018-03-08T04:19:06.925Z,2.43
2018-03-08T04:21:33.934Z,2.30
2018-03-08T04:24:01.706Z,2.63
2018-03-08T04:26:29.485Z,2.07
2018-03-08T04:28:56.470Z,1.83
2018-03-08T04:31:23.578Z,3.97
2018-03-08T04:33:50.638Z,2.97
2018-03-08T04:36:18.514Z,2.33
2018-03-08T04:38:45.514Z,2.40
2018-03-08T04:41:11.765Z,2.30
2018-03-08T04:43:38.845Z,2.83
2018-03-08T04:46:05.831Z,2.13
2018-03-08T04:48:32.097Z,2.40
2018-03-08T04:50:58.674Z,3.00
2018-03-08T04:53:25.666Z,2.47
2018-03-08T04:55:52.991Z,2.60
2018-03-08T04:58:21.164Z,2.50
2018-03-08T05:00:49.241Z,2.10
2018-03-08T05:03:16.270Z,2.97
2018-03-08T05:05:44.978Z,2.23
2018-03-08T05:08:11.961Z,1.97
2018-03-08T05:10:38.221Z,2.33
2018-03-08T05:13:05.525Z,2.30
2018-03-08T05:15:32.509Z,2.80
2018-03-08T05:17:58.830Z,3.53
2018-03-08T05:20:26.066Z,3.00
2018-03-08T05:22:53.529Z,3.60
2018-03-08T05:25:20.521Z,2.53
2018-03-08T05:27:46.773Z,2.07
2018-03-08T05:30:13.354Z,4.63
2018-03-08T05:32:40.362Z,3.20
2018-03-08T05:35:06.717Z,10.50
2018-03-08T05:37:33.281Z,7.30
2018-03-08T05:39:59.614Z,5.30
2018-03-08T05:42:27.197Z,4.60
2018-03-08T05:44:54.173Z,11.00
2018-03-08T05:47:21.198Z,5.77
2018-03-08T05:49:48.181Z,4.83
2018-03-08T05:52:15.294Z,4.03
2018-03-08T05:54:42.293Z,4.30
2018-03-08T05:57:09.309Z,4.20
2018-03-08T05:59:37.212Z,8.03
2018-03-08T06:02:03.533Z,4.87
2018-03-08T06:04:29.773Z,5.10
2018-03-08T06:06:56.693Z,4.40
2018-03-08T06:09:23.666Z,3.47
2018-03-08T06:11:50.901Z,5.13
2018-03-08T06:14:17.897Z,5.10
2018-03-08T06:16:45.229Z,9.70
2018-03-08T06:19:11.485Z,6.80
2018-03-08T06:21:38.397Z,5.80
2018-03-08T06:24:06.078Z,6.20
2018-03-08T06:26:34.148Z,7.80
2018-03-08T06:29:01.134Z,6.70
2018-03-08T06:31:27.381Z,8.87
2018-03-08T06:33:53.966Z,4.37
2018-03-08T06:36:20.965Z,4.93
2018-03-08T06:38:47.970Z,5.90
2018-03-08T06:41:14.954Z,9.40
2018-03-08T06:43:41.878Z,11.80
2018-03-08T06:46:10.765Z,8.07
2018-03-08T06:48:37.749Z,6.83
2018-03-08T06:51:04.874Z,6.37
2018-03-08T06:53:32.741Z,4.50
2018-03-08T06:55:59.746Z,5.27
2018-03-08T06:58:26.004Z,4.63
2018-03-08T07:00:53.493Z,6.60
2018-03-08T07:03:21.677Z,4.93
2018-03-08T07:05:49.757Z,6.30
2018-03-08T07:08:18.138Z,5.57
2018-03-08T07:10:45.157Z,8.10
2018-03-08T07:13:12.337Z,6.50
2018-03-08T07:15:39.333Z,11.73
2018-03-08T07:18:05.593Z,10.93
2018-03-08T07:20:32.669Z,8.53
2018-03-08T07:22:59.726Z,7.53
2018-03-08T07:25:26.726Z,6.97
2018-03-08T07:27:53.025Z,7.23
2018-03-08T07:30:20.373Z,6.37
2018-03-08T07:32:48.242Z,5.30
2018-03-08T07:35:15.232Z,6.00
2018-03-08T07:37:41.482Z,5.63
2018-03-08T07:40:08.085Z,7.40
2018-03-08T07:42:36.159Z,6.63
2018-03-08T07:45:03.199Z,6.07
2018-03-08T07:47:30.982Z,7.30
2018-03-08T07:49:57.981Z,3.40
2018-03-08T07:52:25.085Z,3.43
2018-03-08T07:54:52.070Z,5.80
2018-03-08T07:57:18.310Z,9.50
2018-03-08T07:59:45.418Z,8.03
2018-03-08T08:02:12.408Z,5.30
2018-03-08T08:04:52.629Z,5.43
2018-03-08T08:07:32.882Z,7.40
2018-03-08T08:09:59.866Z,6.23
2018-03-08T08:12:26.157Z,4.73
2018-03-08T08:14:52.705Z,4.70
2018-03-08T08:17:19.689Z,5.27
2018-03-08T08:19:46.718Z,6.90
2018-03-08T08:22:14.578Z,5.47
2018-03-08T08:24:42.377Z,4.77
2018-03-08T08:27:08.618Z,5.27
2018-03-08T08:29:35.637Z,4.90
2018-03-08T08:32:02.662Z,4.33
2018-03-08T08:34:28.906Z,4.70
2018-03-08T08:36:55.566Z,6.53
2018-03-08T08:39:22.554Z,5.90
2018-03-08T08:41:49.677Z,5.73
2018-03-08T08:44:16.665Z,4.17
2018-03-08T08:46:43.897Z,4.60
2018-03-08T08:49:10.838Z,4.43
2018-03-08T08:51:37.854Z,4.60
2018-03-08T08:54:04.114Z,4.53
2018-03-08T08:56:31.487Z,4.67
2018-03-08T08:58:59.658Z,4.20
2018-03-08T09:01:27.842Z,3.80
2018-03-08T09:03:55.506Z,6.87
2018-03-08T09:06:23.274Z,4.90
2018-03-08T09:08:50.263Z,4.57
2018-03-08T09:11:16.514Z,8.90
2018-03-08T09:13:43.299Z,4.47
2018-03-08T09:16:11.262Z,4.90
2018-03-08T09:18:37.610Z,3.20
2018-03-08T09:21:05.745Z,4.10
2018-03-08T09:23:32.602Z,5.63
2018-03-08T09:25:58.852Z,3.87
2018-03-08T09:28:25.101Z,3.30
2018-03-08T09:30:52.114Z,3.60
2018-03-08T09:33:19.317Z,2.83
2018-03-08T09:35:46.317Z,2.70
2018-03-08T09:38:12.558Z,2.30
2018-03-08T09:40:38.858Z,2.67
2018-03-08T09:43:06.194Z,3.23
2018-03-08T09:45:33.195Z,3.27
2018-03-08T09:48:00.204Z,3.90
2018-03-08T09:50:28.077Z,3.20
2018-03-08T09:52:55.058Z,2.33
2018-03-08T09:55:21.306Z,2.90
2018-03-08T09:57:47.898Z,3.13
2018-03-08T10:00:15.738Z,2.60
2018-03-08T10:02:42.730Z,2.57
2018-03-08T10:05:10.696Z,2.97
2018-03-08T10:07:37.674Z,1.97
2018-03-08T10:10:03.923Z,2.10
2018-03-08T10:12:30.522Z,1.57
2018-03-08T10:14:57.498Z,1.90
2018-03-08T10:17:23.857Z,2.13
2018-03-08T10:19:50.114Z,1.80
2018-03-08T10:22:17.398Z,2.13
2018-03-08T10:24:45.284Z,2.20
2018-03-08T10:27:12.278Z,2.03
2018-03-08T10:29:39.382Z,1.80
2018-03-08T10:32:07.142Z,1.50
2018-03-08T10:34:33.408Z,1.50
2018-03-08T10:36:59.689Z,3.80
2018-03-08T10:41:53.829Z,2.40
2018-03-08T10:44:21.485Z,2.80
2018-03-08T10:46:47.812Z,5.07
2018-03-08T10:49:14.050Z,1.80
2018-03-08T10:51:40.601Z,1.97
2018-03-08T10:54:07.594Z,1.40
2018-03-08T10:56:33.934Z,3.67
2018-03-08T10:59:01.053Z,1.57
2018-03-08T11:01:32.955Z,1.50
2018-03-08T11:04:05.394Z,1.70
2018-03-08T11:06:36.534Z,1.73
2018-03-08T11:09:03.625Z,1.30
2018-03-08T11:11:29.889Z,1.40
2018-03-08T11:13:57.177Z,1.23
2018-03-08T11:16:24.182Z,3.10
2018-03-08T11:18:50.435Z,1.20
2018-03-08T11:21:17.525Z,1.67
2018-03-08T11:23:45.293Z,1.20
2018-03-08T11:26:12.285Z,1.10
2018-03-08T11:28:39.805Z,1.40
2018-03-08T11:31:06.886Z,1.20
2018-03-08T11:33:33.134Z,1.23
2018-03-08T11:35:59.627Z,1.13
2018-03-08T11:38:27.920Z,1.40
2018-03-08T11:40:54.909Z,1.43
2018-03-08T11:43:21.951Z,3.80
2018-03-08T11:45:48.178Z,2.10
2018-03-08T11:48:14.430Z,2.93
2018-03-08T11:50:40.900Z,1.17
2018-03-08T11:53:07.261Z,1.50
2018-03-08T11:55:35.021Z,3.13
2018-03-08T11:58:02.285Z,1.53
2018-03-08T12:00:30.053Z,1.13
2018-03-08T12:02:57.826Z,1.57
2018-03-08T12:05:25.701Z,1.30
2018-03-08T12:07:52.690Z,1.20
2018-03-08T12:10:18.938Z,1.20
2018-03-08T12:12:45.206Z,1.10
2018-03-08T12:15:11.453Z,1.20
2018-03-08T12:17:38.532Z,1.53
2018-03-08T12:20:05.861Z,1.80
2018-03-08T12:22:32.846Z,1.13
2018-03-08T12:25:00.070Z,1.20
2018-03-08T12:27:27.077Z,1.40
2018-03-08T12:29:53.361Z,1.30
2018-03-08T12:32:20.626Z,1.13
2018-03-08T12:34:47.666Z,1.10
2018-03-08T12:37:15.746Z,1.27
2018-03-08T12:39:43.512Z,1.20
2018-03-08T12:42:11.186Z,1.20
2018-03-08T12:44:38.175Z,1.40
2018-03-08T12:47:05.182Z,1.30
2018-03-08T12:49:32.164Z,1.10
2018-03-08T12:51:59.375Z,1.23
2018-03-08T12:54:26.757Z,1.10
2018-03-08T12:56:53.798Z,1.83
2018-03-08T12:59:21.478Z,1.20
2018-03-08T13:01:49.399Z,2.43
2018-03-08T13:04:15.635Z,1.47
2018-03-08T13:06:42.730Z,1.20
2018-03-08T13:09:09.716Z,1.50
2018-03-08T13:11:35.960Z,1.00
2018-03-08T13:14:02.557Z,2.70
2018-03-08T13:16:29.562Z,2.10
2018-03-08T13:18:55.971Z,1.23
2018-03-08T13:21:22.997Z,1.83
2018-03-08T13:23:50.973Z,3.00
2018-03-08T13:26:17.962Z,2.97
2018-03-08T13:28:44.210Z,1.37
2018-03-08T13:31:10.701Z,1.90
2018-03-08T13:33:38.354Z,1.30
2018-03-08T13:36:04.682Z,1.60
2018-03-08T13:38:31.866Z,1.40
2018-03-08T13:40:58.925Z,1.10
2018-03-08T13:43:25.861Z,1.03
2018-03-08T13:45:52.861Z,1.30
2018-03-08T13:48:19.099Z,1.20
2018-03-08T13:50:46.196Z,5.90
2018-03-08T13:53:14.002Z,1.73
2018-03-08T13:55:40.269Z,1.10
2018-03-08T13:58:06.525Z,1.00
2018-03-08T14:00:33.701Z,1.87
2018-03-08T14:03:00.741Z,1.10
2018-03-08T14:05:28.517Z,0.90
2018-03-08T14:07:55.506Z,0.87
2018-03-08T14:10:21.748Z,1.30
2018-03-08T14:12:48.389Z,1.00
2018-03-08T14:15:14.613Z,1.03
2018-03-08T14:17:40.945Z,0.97
2018-03-08T14:20:07.917Z,1.00
2018-03-08T14:22:34.157Z,1.10
2018-03-08T14:25:01.159Z,1.47
2018-03-08T14:27:28.156Z,0.80
2018-03-08T14:29:54.406Z,0.90
2018-03-08T14:32:21.430Z,1.00
2018-03-08T14:34:48.341Z,1.10
2018-03-08T14:37:15.322Z,0.80
2018-03-08T14:39:41.566Z,1.77
2018-03-08T14:42:08.880Z,1.80
2018-03-08T14:44:35.125Z,2.40
2018-03-08T14:47:02.898Z,1.03
2018-03-08T14:49:30.763Z,1.00
2018-03-08T14:51:57.754Z,1.60
2018-03-08T14:54:24.034Z,2.23
2018-03-08T14:56:50.692Z,1.30
2018-03-08T14:59:18.788Z,2.30
2018-03-08T15:01:45.037Z,1.37
2018-03-08T15:04:11.290Z,1.10
2018-03-08T15:06:38.186Z,0.90
2018-03-08T15:09:05.275Z,1.10
2018-03-08T15:11:31.510Z,0.90
2018-03-08T15:13:57.772Z,0.90
2018-03-08T15:16:24.019Z,1.13
2018-03-08T15:18:50.341Z,1.50
2018-03-08T15:21:17.338Z,1.20
2018-03-08T15:23:45.098Z,6.77
2018-03-08T15:26:12.090Z,0.80
2018-03-08T15:28:39.925Z,1.00
2018-03-08T15:31:06.970Z,1.00
2018-03-08T15:33:34.954Z,1.10
2018-03-08T15:36:01.934Z,0.80
2018-03-08T15:38:28.186Z,1.37
2018-03-08T15:40:54.741Z,0.80
2018-03-08T15:43:22.443Z,1.10
2018-03-08T15:45:50.314Z,1.00
2018-03-08T15:48:18.043Z,0.80
2018-03-08T15:50:44.310Z,0.80
2018-03-08T15:53:10.662Z,1.07
2018-03-08T15:55:38.012Z,1.13
2018-03-08T15:58:06.096Z,1.33
2018-03-08T16:00:33.973Z,1.10
2018-03-08T16:03:00.245Z,1.00
2018-03-08T16:05:27.245Z,1.00
2018-03-08T16:08:17.322Z,1.07
2018-03-08T16:10:44.586Z,0.80
2018-03-08T16:13:11.626Z,3.07
2018-03-08T16:15:38.587Z,1.40
2018-03-08T16:18:05.600Z,1.10
2018-03-08T16:20:32.703Z,0.90
2018-03-08T16:22:59.709Z,1.10
2018-03-08T16:25:26.793Z,1.23
2018-03-08T16:27:54.462Z,2.70
2018-03-08T16:30:22.342Z,2.17
2018-03-08T16:32:50.223Z,1.17
2018-03-08T16:35:16.557Z,1.00
2018-03-08T16:37:42.813Z,1.10
2018-03-08T16:40:09.098Z,1.27
2018-03-08T16:42:36.270Z,2.03
2018-03-08T16:45:03.942Z,4.57
2018-03-08T16:47:30.951Z,3.90
2018-03-08T16:49:57.922Z,3.37
2018-03-08T16:52:24.166Z,2.50
2018-03-08T16:54:51.175Z,2.20
2018-03-08T16:57:18.171Z,2.17
2018-03-08T16:59:46.064Z,1.83
2018-03-08T17:02:12.310Z,1.90
2018-03-08T17:04:38.565Z,4.60
2018-03-08T17:07:05.633Z,5.43
2018-03-08T17:09:31.883Z,22.70
2018-03-08T17:11:58.149Z,16.83
2018-03-08T17:14:25.506Z,4.93
2018-03-08T17:16:52.490Z,2.60
2018-03-08T17:19:18.930Z,2.30
2018-03-08T17:21:46.043Z,2.90
2018-03-08T17:24:14.029Z,1.43
2018-03-08T17:26:40.281Z,1.53
2018-03-08T17:29:07.301Z,1.73
2018-03-08T17:31:34.966Z,2.30
2018-03-08T17:34:01.958Z,1.90
2018-03-08T17:36:28.202Z,3.60
2018-03-08T17:38:55.223Z,2.93
2018-03-08T17:41:23.279Z,4.37
2018-03-08T17:43:50.995Z,6.60
2018-03-08T17:46:17.245Z,6.50
2018-03-08T17:48:43.501Z,2.47
2018-03-08T17:51:10.078Z,2.50
2018-03-08T17:53:37.146Z,4.53
2018-03-08T17:56:03.402Z,8.33
2018-03-08T17:58:30.706Z,7.00
2018-03-08T18:00:57.718Z,5.53
2018-03-08T18:03:24.826Z,4.50
2018-03-08T18:05:52.723Z,4.50
2018-03-08T18:08:19.635Z,5.40
2018-03-08T18:10:46.642Z,5.27
2018-03-08T18:13:12.885Z,3.40
2018-03-08T18:15:39.788Z,4.70
2018-03-08T18:18:06.050Z,7.40
2018-03-08T18:20:33.265Z,2.63
2018-03-08T18:23:00.986Z,3.33
2018-03-08T18:25:27.989Z,6.40
2018-03-08T18:27:55.863Z,6.67
2018-03-08T18:30:22.861Z,7.40
2018-03-08T18:32:49.113Z,9.13
2018-03-08T18:35:16.396Z,6.43
2018-03-08T18:37:42.754Z,5.30
2018-03-08T18:40:10.025Z,3.83
2018-03-08T18:42:37.285Z,5.33
2018-03-08T18:45:04.744Z,8.00
2018-03-08T18:47:31.161Z,5.23
2018-03-08T18:49:57.573Z,2.70
2018-03-08T18:52:24.986Z,4.90
2018-03-08T18:54:52.260Z,3.20
2018-03-08T18:57:18.685Z,4.73
2018-03-08T18:59:45.823Z,3.20
2018-03-08T19:02:12.116Z,4.53
2018-03-08T19:04:38.379Z,4.00
2018-03-08T19:07:06.140Z,4.10
2018-03-08T19:09:34.017Z,3.23
2018-03-08T19:12:01.017Z,5.40
2018-03-08T19:14:27.277Z,13.90
2018-03-08T19:16:53.845Z,29.97
2018-03-08T19:19:22.229Z,17.87
2018-03-08T19:21:50.130Z,14.10
2018-03-08T19:24:17.138Z,9.13
2018-03-08T19:26:44.436Z,6.50
2018-03-08T19:29:10.705Z,4.73
2018-03-08T19:31:38.134Z,6.77
2018-03-08T19:34:05.232Z,5.67
2018-03-08T19:36:33.128Z,5.10
2018-03-08T19:38:59.413Z,6.23
2018-03-08T19:41:25.667Z,4.37
2018-03-08T19:43:52.755Z,6.53
2018-03-08T19:46:19.737Z,5.63
2018-03-08T19:48:45.996Z,4.67
2018-03-08T19:51:12.467Z,4.77
2018-03-08T19:53:38.810Z,3.50
2018-03-08T19:56:05.916Z,3.33
2018-03-08T19:58:33.017Z,2.37
2018-03-08T20:01:00.007Z,2.90
2018-03-08T20:03:27.405Z,3.50
2018-03-08T20:05:55.404Z,3.00
2018-03-08T20:08:23.176Z,2.10
2018-03-08T20:10:50.956Z,2.23
2018-03-08T20:13:17.947Z,2.53
2018-03-08T20:15:44.238Z,4.70
2018-03-08T20:18:12.005Z,3.50
2018-03-08T20:20:39.866Z,3.50
2018-03-08T20:23:06.911Z,6.80
2018-03-08T20:25:33.876Z,2.90
2018-03-08T20:28:01.963Z,1.60
2018-03-08T20:30:28.963Z,1.87
2018-03-08T20:32:55.327Z,1.30
2018-03-08T20:35:22.620Z,2.10
2018-03-08T20:37:48.966Z,2.60
2018-03-08T20:40:15.887Z,2.27
2018-03-08T20:42:43.874Z,1.90
2018-03-08T20:45:10.133Z,1.60
2018-03-08T20:47:37.252Z,1.87
2018-03-08T20:50:04.234Z,1.57
2018-03-08T20:52:32.066Z,1.57
2018-03-08T20:54:59.934Z,2.80
2018-03-08T20:57:26.194Z,3.73
2018-03-08T20:59:53.340Z,2.97
2018-03-08T21:02:20.352Z,1.93
2018-03-08T21:04:49.084Z,1.90
2018-03-08T21:07:15.438Z,1.83
2018-03-08T21:09:41.705Z,2.00
2018-03-08T21:12:08.285Z,2.83
2018-03-08T21:14:36.367Z,1.50
2018-03-08T21:17:04.026Z,3.47
2018-03-08T21:19:31.904Z,1.40
2018-03-08T21:21:59.670Z,1.10
2018-03-08T21:24:27.341Z,1.47
2018-03-08T21:26:54.331Z,1.47
2018-03-08T21:29:21.545Z,1.20
2018-03-08T21:31:49.734Z,2.80
2018-03-08T21:34:16.734Z,1.10
2018-03-08T21:36:43.829Z,1.67
2018-03-08T21:39:11.810Z,1.83
2018-03-08T21:41:38.810Z,2.13
2018-03-08T21:44:06.625Z,2.93
2018-03-08T21:46:34.413Z,1.90
2018-03-08T21:49:01.650Z,1.37
2018-03-08T21:51:28.634Z,1.00
2018-03-08T21:53:54.874Z,2.27
2018-03-08T21:56:21.482Z,0.90
2018-03-08T21:58:49.561Z,0.93
2018-03-08T22:01:16.618Z,2.97
2018-03-08T22:03:43.584Z,1.00
2018-03-08T22:06:11.324Z,2.20
2018-03-08T22:08:39.197Z,1.67
2018-03-08T22:11:06.197Z,1.40
2018-03-08T22:13:33.202Z,5.50
2018-03-08T22:16:00.869Z,1.20
2018-03-08T22:18:27.869Z,1.40
2018-03-08T22:20:55.193Z,1.57
2018-03-08T22:23:22.186Z,1.50
2018-03-08T22:25:49.189Z,1.43
2018-03-08T22:28:16.234Z,1.33
2018-03-08T22:30:44.107Z,1.20
2018-03-08T22:33:11.099Z,1.50
2018-03-08T22:35:38.325Z,1.33
2018-03-08T22:38:05.325Z,1.83
2018-03-08T22:40:31.565Z,1.23
2018-03-08T22:42:58.691Z,1.00
2018-03-08T22:45:25.712Z,1.03
2018-03-08T22:47:52.725Z,1.40
2018-03-08T22:50:18.993Z,1.10
2018-03-08T22:52:46.661Z,1.13
2018-03-08T22:55:13.653Z,0.90
2018-03-08T22:57:39.910Z,0.93
2018-03-08T23:00:07.397Z,1.00
2018-03-08T23:02:33.645Z,1.03
2018-03-08T23:05:01.421Z,0.90
2018-03-08T23:07:28.420Z,1.33
2018-03-08T23:09:55.522Z,10.07
2018-03-08T23:12:22.575Z,11.10
2018-03-08T23:14:50.548Z,14.97
2018-03-08T23:17:18.413Z,16.80
2018-03-08T23:19:45.397Z,10.03
2018-03-08T23:22:12.413Z,13.63
2018-03-08T23:24:39.673Z,10.73
2018-03-08T23:27:07.450Z,6.43
2018-03-08T23:29:34.459Z,2.27
2018-03-08T23:32:00.722Z,12.33
2018-03-08T23:34:29.317Z,17.93
2018-03-08T23:36:57.201Z,10.10
2018-03-08T23:39:24.178Z,4.37
2018-03-08T23:41:51.508Z,9.43
2018-03-08T23:44:19.162Z,8.03
2018-03-08T23:46:46.842Z,8.90
2018-03-08T23:49:13.829Z,5.13
2018-03-08T23:54:37.322Z,1.77
2018-03-08T23:57:04.728Z,5.90
2018-03-08T23:59:32.724Z,1.20
